createdAt,value
2019-02-15T00:00:57.359Z,75.92
2019-02-15T00:03:26.813Z,75.93
2019-02-15T00:05:56.295Z,75.78
2019-02-15T00:08:26.028Z,75.44
2019-02-15T00:10:55.460Z,75.23
2019-02-15T00:13:26.068Z,75.10
2019-02-15T00:15:55.505Z,75.57
2019-02-15T00:18:33.413Z,75.47
2019-02-15T00:21:04.533Z,75.63
2019-02-15T00:23:33.990Z,75.40
2019-02-15T00:26:03.457Z,74.92
2019-02-15T00:28:32.915Z,74.79
2019-02-15T00:31:02.363Z,74.66
2019-02-15T00:33:31.834Z,74.62
2019-02-15T00:36:01.282Z,74.63
2019-02-15T00:38:30.764Z,74.91
2019-02-15T00:41:00.212Z,75.36
2019-02-15T00:43:29.681Z,75.44
2019-02-15T00:46:15.604Z,75.02
2019-02-15T00:48:53.782Z,74.95
2019-02-15T00:51:40.546Z,75.60
2019-02-15T00:54:20.736Z,75.92
2019-02-15T00:57:06.613Z,76.15
2019-02-15T00:59:49.310Z,76.18
2019-02-15T01:02:22.867Z,76.59
2019-02-15T01:04:57.204Z,76.70
2019-02-15T01:07:28.328Z,77.01
2019-02-15T01:09:59.422Z,77.47
2019-02-15T01:12:30.538Z,78.16
2019-02-15T01:14:59.999Z,78.34
2019-02-15T01:17:29.479Z,78.18
2019-02-15T01:19:58.934Z,78.00
2019-02-15T01:22:28.380Z,77.66
2019-02-15T01:24:58.529Z,77.44
2019-02-15T01:27:29.625Z,77.53
2019-02-15T01:30:00.745Z,77.23
2019-02-15T01:32:40.289Z,77.06
2019-02-15T01:35:14.318Z,76.95
2019-02-15T01:37:45.417Z,77.08
2019-02-15T01:40:22.318Z,76.61
2019-02-15T01:42:53.436Z,76.29
2019-02-15T01:45:24.533Z,76.60
2019-02-15T01:47:54.002Z,76.55
2019-02-15T01:50:23.461Z,76.66
2019-02-15T01:52:52.922Z,76.90
2019-02-15T01:55:22.401Z,77.07
2019-02-15T01:57:51.872Z,76.87
2019-02-15T02:00:22.914Z,76.64
2019-02-15T02:02:52.373Z,76.37
2019-02-15T02:05:21.850Z,76.17
2019-02-15T02:07:51.305Z,76.24
2019-02-15T02:10:20.781Z,76.99
2019-02-15T02:12:50.247Z,76.90
2019-02-15T02:15:19.971Z,76.63
2019-02-15T02:17:49.429Z,76.05
2019-02-15T02:20:18.905Z,75.77
2019-02-15T02:22:48.362Z,75.98
2019-02-15T02:25:17.859Z,75.85
2019-02-15T02:27:47.330Z,75.83
2019-02-15T02:30:16.878Z,76.15
2019-02-15T02:32:46.335Z,76.05
2019-02-15T02:35:15.809Z,75.95
2019-02-15T02:37:45.335Z,75.57
2019-02-15T02:40:14.835Z,75.48
2019-02-15T02:42:44.344Z,75.19
2019-02-15T02:45:13.816Z,75.23
2019-02-15T02:47:43.304Z,75.49
2019-02-15T02:50:12.748Z,75.56
2019-02-15T02:52:42.229Z,75.46
2019-02-15T02:55:11.706Z,75.93
2019-02-15T02:57:41.158Z,76.29
2019-02-15T03:00:10.958Z,75.95
2019-02-15T03:02:40.397Z,75.65
2019-02-15T03:05:09.945Z,75.60
2019-02-15T03:07:39.402Z,75.33
2019-02-15T03:10:09.111Z,75.80
2019-02-15T03:12:38.584Z,75.67
2019-02-15T03:15:09.038Z,75.62
2019-02-15T03:17:38.506Z,75.87
2019-02-15T03:20:08.721Z,75.87
2019-02-15T03:22:38.216Z,75.72
2019-02-15T03:25:07.731Z,75.59
2019-02-15T03:27:37.177Z,75.64
2019-02-15T03:30:09.761Z,75.43
2019-02-15T03:32:39.220Z,75.19
2019-02-15T03:35:10.333Z,74.64
2019-02-15T03:37:53.222Z,74.61
2019-02-15T03:40:24.334Z,75.09
2019-02-15T03:42:53.802Z,74.92
2019-02-15T03:45:23.280Z,74.87
2019-02-15T03:47:52.750Z,74.82
2019-02-15T03:50:22.232Z,74.80
2019-02-15T03:52:51.676Z,74.80
2019-02-15T03:55:21.205Z,74.87
2019-02-15T03:57:50.689Z,75.02
2019-02-15T04:00:20.160Z,75.06
2019-02-15T04:02:49.709Z,75.01
2019-02-15T04:05:19.162Z,74.96
2019-02-15T04:07:48.638Z,74.40
2019-02-15T04:10:18.094Z,74.50
2019-02-15T04:12:47.574Z,74.35
2019-02-15T04:15:17.028Z,74.01
2019-02-15T04:17:46.509Z,74.36
2019-02-15T04:20:15.962Z,74.43
2019-02-15T04:22:45.577Z,74.79
2019-02-15T04:25:15.039Z,74.88
2019-02-15T04:27:44.526Z,74.76
2019-02-15T04:30:13.979Z,74.64
2019-02-15T04:32:43.449Z,75.03
2019-02-15T04:35:12.907Z,75.13
2019-02-15T04:37:42.392Z,75.06
2019-02-15T04:40:11.849Z,75.30
2019-02-15T04:42:41.323Z,75.92
2019-02-15T04:45:10.863Z,76.06
2019-02-15T04:47:40.346Z,76.93
2019-02-15T04:50:10.310Z,77.28
2019-02-15T04:52:39.795Z,77.37
2019-02-15T04:55:09.249Z,77.49
2019-02-15T04:57:38.744Z,77.51
2019-02-15T05:00:09.845Z,77.35
2019-02-15T05:02:39.300Z,77.07
2019-02-15T05:05:08.994Z,77.02
2019-02-15T05:07:38.479Z,77.48
2019-02-15T05:10:08.010Z,78.76
2019-02-15T05:12:37.511Z,78.29
2019-02-15T05:15:08.702Z,77.63
2019-02-15T05:17:38.190Z,77.33
2019-02-15T05:20:08.607Z,77.00
2019-02-15T05:22:38.079Z,76.64
2019-02-15T05:25:07.608Z,76.24
2019-02-15T05:27:37.141Z,75.97
2019-02-15T05:30:08.633Z,75.83
2019-02-15T05:32:38.116Z,75.52
2019-02-15T05:35:07.814Z,75.53
2019-02-15T05:37:37.327Z,75.13
2019-02-15T05:40:07.524Z,74.58
2019-02-15T05:42:37.009Z,74.74
2019-02-15T05:45:07.384Z,74.81
2019-02-15T05:47:36.831Z,74.62
2019-02-15T05:50:07.519Z,74.86
2019-02-15T05:52:36.981Z,74.92
2019-02-15T05:55:07.298Z,74.85
2019-02-15T05:57:37.007Z,74.87
2019-02-15T06:00:10.190Z,75.78
2019-02-15T06:02:39.642Z,76.37
2019-02-15T06:05:09.993Z,76.14
2019-02-15T06:07:39.444Z,75.75
2019-02-15T06:10:09.595Z,75.54
2019-02-15T06:12:39.068Z,75.36
2019-02-15T06:15:15.068Z,75.13
2019-02-15T06:17:40.046Z,75.20
2019-02-15T06:20:09.527Z,75.88
2019-02-15T06:22:38.986Z,76.26
2019-02-15T06:25:08.538Z,76.05
2019-02-15T06:27:38.004Z,75.50
2019-02-15T06:30:09.484Z,75.06
2019-02-15T06:32:38.946Z,75.44
2019-02-15T06:35:08.497Z,76.04
2019-02-15T06:37:37.953Z,76.27
2019-02-15T06:40:07.874Z,76.79
2019-02-15T06:42:37.339Z,76.56
2019-02-15T06:45:07.921Z,75.90
2019-02-15T06:47:37.367Z,76.04
2019-02-15T06:50:08.379Z,75.68
2019-02-15T06:52:37.833Z,75.26
2019-02-15T06:55:08.066Z,75.07
2019-02-15T06:57:37.517Z,75.01
2019-02-15T07:00:16.177Z,75.02
2019-02-15T07:02:49.703Z,75.06
2019-02-15T07:05:20.818Z,75.41
2019-02-15T07:07:50.276Z,75.52
2019-02-15T07:10:19.825Z,75.09
2019-02-15T07:12:49.272Z,75.28
2019-02-15T07:15:18.753Z,75.29
2019-02-15T07:17:48.278Z,75.18
2019-02-15T07:20:17.769Z,75.25
2019-02-15T07:22:47.295Z,75.11
2019-02-15T07:25:16.771Z,74.79
2019-02-15T07:27:46.229Z,74.45
2019-02-15T07:30:15.888Z,74.58
2019-02-15T07:32:45.410Z,74.58
2019-02-15T07:35:14.885Z,74.54
2019-02-15T07:37:44.415Z,74.71
2019-02-15T07:40:13.931Z,74.31
2019-02-15T07:42:43.407Z,74.20
2019-02-15T07:45:12.937Z,74.36
2019-02-15T07:47:42.410Z,74.51
2019-02-15T07:50:15.891Z,74.67
2019-02-15T07:52:45.357Z,74.75
2019-02-15T07:55:14.817Z,74.80
2019-02-15T07:57:44.283Z,74.93
2019-02-15T08:00:15.750Z,75.44
2019-02-15T08:02:45.227Z,75.58
2019-02-15T08:05:14.677Z,75.49
2019-02-15T08:07:44.159Z,75.32
2019-02-15T08:10:13.678Z,75.17
2019-02-15T08:12:43.152Z,75.34
2019-02-15T08:15:12.678Z,75.21
2019-02-15T08:17:42.145Z,75.09
2019-02-15T08:20:12.281Z,74.95
2019-02-15T08:22:41.765Z,74.77
2019-02-15T08:25:11.452Z,74.62
2019-02-15T08:27:40.933Z,74.18
2019-02-15T08:30:12.103Z,73.92
2019-02-15T08:32:41.577Z,73.77
2019-02-15T08:35:11.906Z,73.73
2019-02-15T08:37:41.387Z,73.37
2019-02-15T08:40:11.883Z,73.09
2019-02-15T08:42:41.349Z,72.89
2019-02-15T08:45:13.045Z,72.80
2019-02-15T08:47:42.509Z,73.00
2019-02-15T08:50:12.907Z,72.89
2019-02-15T08:52:42.372Z,72.75
2019-02-15T08:55:12.666Z,72.55
2019-02-15T08:57:42.127Z,72.56
2019-02-15T09:00:14.970Z,72.56
2019-02-15T09:02:44.425Z,72.11
2019-02-15T09:05:14.162Z,71.76
2019-02-15T09:07:43.625Z,71.79
2019-02-15T09:10:14.701Z,71.97
2019-02-15T09:12:44.160Z,72.21
2019-02-15T09:15:20.938Z,72.26
2019-02-15T09:17:50.390Z,71.98
2019-02-15T09:20:19.837Z,71.30
2019-02-15T09:22:49.313Z,71.09
2019-02-15T09:25:18.761Z,70.79
2019-02-15T09:28:05.506Z,70.37
2019-02-15T09:30:34.963Z,70.86
2019-02-15T09:33:04.408Z,70.36
2019-02-15T09:35:33.949Z,69.69
2019-02-15T09:38:03.405Z,69.22
2019-02-15T09:40:32.892Z,69.11
2019-02-15T09:43:02.342Z,68.85
2019-02-15T09:45:33.018Z,68.17
2019-02-15T09:48:02.551Z,67.78
2019-02-15T09:50:31.997Z,68.12
2019-02-15T09:53:01.621Z,68.17
2019-02-15T09:55:31.085Z,68.34
2019-02-15T09:58:00.549Z,68.40
2019-02-15T10:00:30.002Z,67.81
2019-02-15T10:02:59.478Z,67.01
2019-02-15T10:05:28.951Z,66.60
2019-02-15T10:07:58.399Z,66.76
2019-02-15T10:10:27.867Z,66.05
2019-02-15T10:12:57.346Z,65.99
2019-02-15T10:15:26.800Z,65.66
2019-02-15T10:17:56.256Z,65.00
2019-02-15T10:20:25.731Z,64.61
2019-02-15T10:22:55.188Z,64.26
2019-02-15T10:25:24.669Z,63.65
2019-02-15T10:27:54.113Z,63.16
2019-02-15T10:30:23.573Z,62.50
2019-02-15T10:32:53.047Z,61.96
2019-02-15T10:35:22.526Z,61.04
2019-02-15T10:37:51.988Z,60.30
2019-02-15T10:40:21.462Z,60.21
2019-02-15T10:42:50.978Z,60.33
2019-02-15T10:45:20.644Z,60.54
2019-02-15T10:47:50.099Z,59.60
2019-02-15T10:50:19.626Z,58.18
2019-02-15T10:52:49.156Z,58.88
2019-02-15T10:55:18.632Z,58.91
2019-02-15T10:57:48.150Z,58.07
2019-02-15T11:00:21.984Z,57.34
2019-02-15T11:02:51.531Z,57.09
2019-02-15T11:05:20.982Z,56.70
2019-02-15T11:07:50.528Z,57.20
2019-02-15T11:10:19.995Z,56.64
2019-02-15T11:12:49.452Z,55.24
2019-02-15T11:15:19.003Z,54.35
2019-02-15T11:17:48.479Z,54.80
2019-02-15T11:20:19.046Z,54.44
2019-02-15T11:22:48.501Z,53.99
2019-02-15T11:25:17.992Z,54.26
2019-02-15T11:27:47.449Z,53.86
2019-02-15T11:30:17.656Z,52.50
2019-02-15T11:32:47.128Z,51.21
2019-02-15T11:35:16.587Z,50.71
2019-02-15T11:37:46.040Z,50.38
2019-02-15T11:40:17.134Z,49.27
2019-02-15T11:42:46.584Z,48.40
2019-02-15T11:45:16.506Z,47.94
2019-02-15T11:47:46.045Z,46.95
2019-02-15T11:50:16.045Z,46.56
2019-02-15T11:52:45.517Z,45.68
2019-02-15T11:55:15.056Z,45.41
2019-02-15T11:57:44.597Z,44.82
2019-02-15T12:00:20.387Z,43.95
2019-02-15T12:02:49.462Z,44.02
2019-02-15T12:05:18.946Z,45.12
2019-02-15T12:07:48.398Z,44.05
2019-02-15T12:10:17.855Z,43.74
2019-02-15T12:12:47.332Z,44.06
2019-02-15T12:15:16.792Z,42.96
2019-02-15T12:17:46.250Z,42.61
2019-02-15T12:20:16.205Z,43.18
2019-02-15T12:22:45.664Z,43.06
2019-02-15T12:25:15.121Z,43.74
2019-02-15T12:27:44.596Z,43.06
2019-02-15T12:30:16.263Z,43.03
2019-02-15T12:32:45.721Z,42.58
2019-02-15T12:35:15.198Z,42.68
2019-02-15T12:37:44.659Z,41.87
2019-02-15T12:40:14.556Z,43.50
2019-02-15T12:42:44.037Z,43.08
2019-02-15T12:45:17.069Z,42.60
2019-02-15T12:47:46.564Z,42.25
2019-02-15T12:50:21.151Z,42.53
2019-02-15T12:52:50.606Z,42.67
2019-02-15T12:55:20.139Z,43.20
2019-02-15T12:57:49.614Z,41.90
2019-02-15T13:00:19.248Z,42.11
2019-02-15T13:02:48.702Z,41.82
2019-02-15T13:05:18.189Z,40.67
2019-02-15T13:07:47.642Z,40.83
2019-02-15T13:10:18.813Z,41.08
2019-02-15T13:12:48.301Z,40.23
2019-02-15T13:15:17.769Z,41.07
2019-02-15T13:17:47.227Z,40.13
2019-02-15T13:20:16.706Z,39.25
2019-02-15T13:22:46.159Z,40.33
2019-02-15T13:25:15.713Z,39.89
2019-02-15T13:27:45.173Z,39.86
2019-02-15T13:30:16.679Z,39.83
2019-02-15T13:32:46.122Z,39.47
2019-02-15T13:35:24.398Z,39.05
2019-02-15T13:37:53.858Z,37.96
2019-02-15T13:40:23.374Z,38.04
2019-02-15T13:42:52.871Z,37.91
2019-02-15T13:45:22.590Z,37.83
2019-02-15T13:47:52.071Z,38.09
2019-02-15T13:50:21.800Z,38.24
2019-02-15T13:52:51.252Z,38.51
2019-02-15T13:55:20.733Z,38.40
2019-02-15T13:57:50.190Z,38.34
2019-02-15T14:00:19.727Z,38.47
2019-02-15T14:02:49.205Z,37.58
2019-02-15T14:05:18.671Z,37.59
2019-02-15T14:07:48.146Z,36.68
2019-02-15T14:10:17.605Z,36.69
2019-02-15T14:12:47.079Z,36.94
2019-02-15T14:15:16.604Z,37.25
2019-02-15T14:17:48.350Z,37.29
2019-02-15T14:20:17.270Z,36.60
2019-02-15T14:22:46.733Z,36.55
2019-02-15T14:25:16.174Z,35.81
2019-02-15T14:27:45.659Z,36.96
2019-02-15T14:30:15.556Z,36.94
2019-02-15T14:32:45.008Z,36.54
2019-02-15T14:35:17.462Z,36.27
2019-02-15T14:37:47.144Z,35.68
2019-02-15T14:40:16.581Z,36.42
2019-02-15T14:42:46.054Z,36.13
2019-02-15T14:45:16.115Z,35.93
2019-02-15T14:47:54.577Z,35.92
2019-02-15T14:50:17.027Z,35.79
2019-02-15T14:52:46.473Z,35.35
2019-02-15T14:55:16.019Z,35.59
2019-02-15T14:57:45.493Z,35.33
2019-02-15T15:00:16.089Z,35.30
2019-02-15T15:02:45.556Z,34.68
2019-02-15T15:05:15.092Z,33.92
2019-02-15T15:07:44.638Z,33.92
2019-02-15T15:10:14.110Z,34.03
2019-02-15T15:12:43.571Z,34.90
2019-02-15T15:15:15.997Z,35.12
2019-02-15T15:17:45.457Z,35.18
2019-02-15T15:20:15.109Z,34.46
2019-02-15T15:22:44.570Z,34.84
2019-02-15T15:25:17.219Z,35.31
2019-02-15T15:27:46.693Z,34.30
2019-02-15T15:30:19.130Z,33.86
2019-02-15T15:32:48.588Z,34.27
2019-02-15T15:35:18.060Z,34.09
2019-02-15T15:37:47.514Z,34.35
2019-02-15T15:40:18.235Z,34.93
2019-02-15T15:42:47.696Z,35.10
2019-02-15T15:45:17.158Z,35.53
2019-02-15T15:47:47.203Z,37.03
2019-02-15T15:50:16.666Z,37.28
2019-02-15T15:52:46.142Z,37.96
2019-02-15T15:55:17.667Z,39.10
2019-02-15T15:57:46.792Z,40.23
2019-02-15T16:00:16.910Z,41.32
2019-02-15T16:02:46.362Z,42.37
2019-02-15T16:05:15.842Z,43.09
2019-02-15T16:07:45.319Z,43.62
2019-02-15T16:10:15.774Z,44.31
2019-02-15T16:12:45.264Z,45.05
2019-02-15T16:15:15.184Z,45.54
2019-02-15T16:17:44.630Z,46.44
2019-02-15T16:20:14.861Z,46.82
2019-02-15T16:22:44.378Z,46.66
2019-02-15T16:25:13.841Z,47.28
2019-02-15T16:27:43.683Z,47.65
2019-02-15T16:30:16.924Z,47.78
2019-02-15T16:32:46.389Z,48.31
2019-02-15T16:35:15.863Z,48.32
2019-02-15T16:37:45.384Z,48.40
2019-02-15T16:40:16.021Z,48.61
2019-02-15T16:42:45.556Z,48.39
2019-02-15T16:45:18.340Z,48.73
2019-02-15T16:47:47.790Z,48.91
2019-02-15T16:50:17.270Z,49.46
2019-02-15T16:52:46.738Z,49.97
2019-02-15T16:55:16.199Z,50.56
2019-02-15T16:57:45.678Z,51.64
2019-02-15T17:00:15.449Z,52.57
2019-02-15T17:02:44.951Z,53.07
2019-02-15T17:05:14.505Z,53.86
2019-02-15T17:07:43.936Z,53.67
2019-02-15T17:10:13.532Z,53.95
2019-02-15T17:12:43.006Z,54.17
2019-02-15T17:15:14.579Z,54.43
2019-02-15T17:17:44.053Z,54.85
2019-02-15T17:20:13.585Z,55.01
2019-02-15T17:22:43.049Z,55.83
2019-02-15T17:25:12.976Z,57.73
2019-02-15T17:27:42.427Z,58.58
2019-02-15T17:30:12.698Z,58.61
2019-02-15T17:32:42.437Z,58.36
2019-02-15T17:35:12.532Z,58.03
2019-02-15T17:37:41.995Z,57.77
2019-02-15T17:40:16.276Z,57.60
2019-02-15T17:42:45.737Z,57.42
2019-02-15T17:45:15.267Z,57.31
2019-02-15T17:47:44.725Z,57.26
2019-02-15T17:50:14.448Z,57.40
2019-02-15T17:52:43.896Z,57.40
2019-02-15T17:55:13.609Z,57.46
2019-02-15T17:57:43.142Z,58.28
2019-02-15T18:00:17.761Z,58.48
2019-02-15T18:02:47.211Z,59.63
2019-02-15T18:05:16.720Z,60.15
2019-02-15T18:07:50.950Z,60.46
2019-02-15T18:10:20.408Z,60.20
2019-02-15T18:12:49.879Z,60.62
2019-02-15T18:15:19.440Z,60.56
2019-02-15T18:17:48.889Z,60.66
2019-02-15T18:20:18.375Z,60.78
2019-02-15T18:22:47.889Z,60.83
2019-02-15T18:25:17.347Z,60.78
2019-02-15T18:27:46.994Z,61.05
2019-02-15T18:30:17.964Z,61.14
2019-02-15T18:32:47.735Z,61.50
2019-02-15T18:35:17.213Z,61.38
2019-02-15T18:37:46.656Z,61.75
2019-02-15T18:40:16.141Z,62.38
2019-02-15T18:42:45.599Z,63.17
2019-02-15T18:45:16.764Z,63.17
2019-02-15T18:47:46.302Z,63.14
2019-02-15T18:50:15.778Z,63.46
2019-02-15T18:52:45.227Z,63.61
2019-02-15T18:55:14.686Z,63.57
2019-02-15T18:57:44.143Z,64.27
2019-02-15T19:00:17.741Z,65.22
2019-02-15T19:02:49.955Z,65.31
2019-02-15T19:05:19.415Z,66.27
2019-02-15T19:07:48.885Z,66.92
2019-02-15T19:10:21.454Z,66.88
2019-02-15T19:12:50.926Z,67.81
2019-02-15T19:15:20.411Z,68.22
2019-02-15T19:17:49.893Z,67.83
2019-02-15T19:20:19.420Z,67.42
2019-02-15T19:22:48.874Z,69.65
2019-02-15T19:25:20.675Z,71.42
2019-02-15T19:27:50.127Z,71.27
2019-02-15T19:30:32.644Z,69.67
2019-02-15T19:33:02.101Z,69.42
2019-02-15T19:35:31.553Z,70.36
2019-02-15T19:38:01.025Z,70.61
2019-02-15T19:40:30.499Z,70.61
2019-02-15T19:43:04.687Z,69.94
2019-02-15T19:45:34.332Z,69.58
2019-02-15T19:48:03.796Z,69.03
2019-02-15T19:50:33.239Z,68.88
2019-02-15T19:53:02.719Z,68.59
2019-02-15T19:55:32.204Z,68.87
2019-02-15T19:58:01.656Z,68.73
2019-02-15T20:00:31.107Z,69.52
2019-02-15T20:03:00.582Z,70.74
2019-02-15T20:05:30.108Z,70.52
2019-02-15T20:07:59.567Z,70.75
2019-02-15T20:10:29.615Z,71.04
2019-02-15T20:13:00.769Z,72.02
2019-02-15T20:15:30.397Z,71.58
2019-02-15T20:17:59.951Z,70.86
2019-02-15T20:20:29.406Z,70.61
2019-02-15T20:22:58.886Z,70.59
2019-02-15T20:25:28.331Z,70.39
2019-02-15T20:27:57.857Z,70.43
2019-02-15T20:30:27.330Z,70.32
2019-02-15T20:32:56.863Z,70.68
2019-02-15T20:35:26.336Z,70.58
2019-02-15T20:37:55.808Z,70.53
2019-02-15T20:40:25.519Z,70.21
2019-02-15T20:42:54.966Z,70.14
2019-02-15T20:45:24.883Z,69.80
2019-02-15T20:47:54.353Z,69.49
2019-02-15T20:50:23.785Z,70.24
2019-02-15T20:52:53.267Z,70.87
2019-02-15T20:55:22.960Z,71.61
2019-02-15T20:57:52.445Z,71.24
2019-02-15T21:00:28.018Z,72.08
2019-02-15T21:02:57.480Z,72.21
2019-02-15T21:05:26.954Z,72.67
2019-02-15T21:07:56.408Z,72.81
2019-02-15T21:10:25.886Z,73.90
2019-02-15T21:12:55.339Z,74.01
2019-02-15T21:15:24.805Z,73.57
2019-02-15T21:17:54.275Z,73.56
2019-02-15T21:20:24.629Z,74.08
2019-02-15T21:22:54.278Z,74.02
2019-02-15T21:25:23.743Z,73.82
2019-02-15T21:27:53.230Z,73.75
2019-02-15T21:30:22.756Z,73.28
2019-02-15T21:32:52.203Z,72.89
2019-02-15T21:35:21.688Z,72.15
2019-02-15T21:37:51.139Z,71.71
2019-02-15T21:40:20.667Z,71.85
2019-02-15T21:42:52.047Z,71.80
2019-02-15T21:45:21.350Z,72.38
2019-02-15T21:47:50.801Z,72.42
2019-02-15T21:50:20.258Z,72.18
2019-02-15T21:52:49.735Z,72.08
2019-02-15T21:55:19.196Z,72.16
2019-02-15T21:57:48.680Z,72.30
2019-02-15T22:00:21.561Z,73.66
2019-02-15T22:02:51.015Z,74.17
2019-02-15T22:05:20.493Z,75.14
2019-02-15T22:07:49.957Z,76.73
2019-02-15T22:10:19.415Z,77.80
2019-02-15T22:12:48.887Z,77.08
2019-02-15T22:15:18.818Z,76.44
2019-02-15T22:17:48.306Z,76.17
2019-02-15T22:20:26.384Z,75.79
2019-02-15T22:22:49.587Z,75.76
2019-02-15T22:25:19.055Z,75.79
2019-02-15T22:27:48.519Z,75.50
2019-02-15T22:30:21.489Z,75.30
2019-02-15T22:32:50.934Z,75.63
2019-02-15T22:35:20.413Z,75.33
2019-02-15T22:37:49.868Z,75.47
2019-02-15T22:40:31.796Z,75.85
2019-02-15T22:43:08.589Z,76.03
2019-02-15T22:45:38.047Z,75.63
2019-02-15T22:48:07.521Z,75.39
2019-02-15T22:50:36.972Z,75.60
2019-02-15T22:53:06.428Z,75.65
2019-02-15T22:55:35.905Z,76.20
2019-02-15T22:58:05.352Z,76.04
2019-02-15T23:00:49.328Z,76.47
2019-02-15T23:03:22.098Z,76.55
2019-02-15T23:05:51.626Z,76.69
2019-02-15T23:08:21.183Z,76.54
2019-02-15T23:10:50.704Z,76.27
2019-02-15T23:13:20.174Z,76.18
2019-02-15T23:15:49.634Z,76.26
2019-02-15T23:18:19.235Z,76.09
2019-02-15T23:20:48.665Z,75.85
2019-02-15T23:23:18.116Z,75.55
2019-02-15T23:25:47.606Z,75.55
2019-02-15T23:28:17.044Z,75.51
2019-02-15T23:30:46.511Z,75.13
2019-02-15T23:33:15.984Z,74.81
2019-02-15T23:35:45.511Z,74.75
2019-02-15T23:38:14.963Z,74.62
2019-02-15T23:40:44.440Z,74.73
2019-02-15T23:43:13.905Z,74.79
2019-02-15T23:45:44.957Z,75.11
2019-02-15T23:48:14.636Z,75.06
2019-02-15T23:50:44.101Z,75.15
2019-02-15T23:53:13.566Z,75.55
2019-02-15T23:55:43.019Z,75.58
2019-02-15T23:58:12.494Z,75.58
